sensor_id;sensor_type;location;lat;lon;timestamp;P1;durP1;ratioP1;P2;durP2;ratioP2
34489;SDS011;20730;49.372;7.324;2024-01-27T00:01:01;10.98;;;3.60;;
34489;SDS011;20730;49.372;7.324;2024-01-27T00:03:28;11.65;;;4.88;;
34489;SDS011;20730;49.372;7.324;2024-01-27T00:05:55;11.95;;;3.63;;
34489;SDS011;20730;49.372;7.324;2024-01-27T00:08:22;16.10;;;3.40;;
34489;SDS011;20730;49.372;7.324;2024-01-27T00:10:48;11.90;;;3.05;;
34489;SDS011;20730;49.372;7.324;2024-01-27T00:13:15;10.90;;;2.80;;
34489;SDS011;20730;49.372;7.324;2024-01-27T00:15:42;11.27;;;2.95;;
34489;SDS011;20730;49.372;7.324;2024-01-27T00:18:08;12.40;;;2.58;;
34489;SDS011;20730;49.372;7.324;2024-01-27T00:20:35;16.08;;;3.13;;
34489;SDS011;20730;49.372;7.324;2024-01-27T00:23:02;13.32;;;2.83;;
34489;SDS011;20730;49.372;7.324;2024-01-27T00:25:28;11.57;;;2.70;;
34489;SDS011;20730;49.372;7.324;2024-01-27T00:27:55;12.00;;;2.50;;
34489;SDS011;20730;49.372;7.324;2024-01-27T00:30:21;9.88;;;2.67;;
34489;SDS011;20730;49.372;7.324;2024-01-27T00:32:48;11.15;;;2.78;;
34489;SDS011;20730;49.372;7.324;2024-01-27T00:35:15;11.60;;;2.38;;
34489;SDS011;20730;49.372;7.324;2024-01-27T00:37:41;15.75;;;2.90;;
34489;SDS011;20730;49.372;7.324;2024-01-27T00:40:09;10.93;;;2.67;;
34489;SDS011;20730;49.372;7.324;2024-01-27T00:42:36;5.95;;;2.50;;
34489;SDS011;20730;49.372;7.324;2024-01-27T00:45:03;11.98;;;2.67;;
34489;SDS011;20730;49.372;7.324;2024-01-27T00:47:30;12.13;;;2.50;;
34489;SDS011;20730;49.372;7.324;2024-01-27T00:49:57;11.30;;;3.20;;
34489;SDS011;20730;49.372;7.324;2024-01-27T00:52:24;12.88;;;3.38;;
34489;SDS011;20730;49.372;7.324;2024-01-27T00:54:51;14.93;;;3.20;;
34489;SDS011;20730;49.372;7.324;2024-01-27T00:57:17;18.30;;;6.68;;
34489;SDS011;20730;49.372;7.324;2024-01-27T00:59:44;16.50;;;4.50;;
34489;SDS011;20730;49.372;7.324;2024-01-27T01:02:10;13.23;;;3.53;;
34489;SDS011;20730;49.372;7.324;2024-01-27T01:04:37;13.13;;;3.20;;
34489;SDS011;20730;49.372;7.324;2024-01-27T01:07:04;8.55;;;3.28;;
34489;SDS011;20730;49.372;7.324;2024-01-27T01:09:30;10.43;;;3.17;;
34489;SDS011;20730;49.372;7.324;2024-01-27T01:11:57;9.27;;;3.10;;
34489;SDS011;20730;49.372;7.324;2024-01-27T01:14:23;15.43;;;3.88;;
34489;SDS011;20730;49.372;7.324;2024-01-27T01:16:50;11.95;;;3.28;;
34489;SDS011;20730;49.372;7.324;2024-01-27T01:19:16;8.75;;;3.10;;
34489;SDS011;20730;49.372;7.324;2024-01-27T01:21:43;11.80;;;3.80;;
34489;SDS011;20730;49.372;7.324;2024-01-27T01:24:10;12.65;;;4.07;;
34489;SDS011;20730;49.372;7.324;2024-01-27T01:26:36;12.15;;;4.15;;
34489;SDS011;20730;49.372;7.324;2024-01-27T01:29:03;14.35;;;4.85;;
34489;SDS011;20730;49.372;7.324;2024-01-27T01:31:29;16.15;;;3.97;;
34489;SDS011;20730;49.372;7.324;2024-01-27T01:33:56;9.63;;;3.45;;
34489;SDS011;20730;49.372;7.324;2024-01-27T01:36:23;17.98;;;3.95;;
34489;SDS011;20730;49.372;7.324;2024-01-27T01:38:49;13.20;;;3.92;;
34489;SDS011;20730;49.372;7.324;2024-01-27T01:41:16;15.48;;;3.58;;
34489;SDS011;20730;49.372;7.324;2024-01-27T01:43:42;14.35;;;3.38;;
34489;SDS011;20730;49.372;7.324;2024-01-27T01:46:09;13.55;;;3.60;;
34489;SDS011;20730;49.372;7.324;2024-01-27T01:48:35;14.35;;;4.20;;
34489;SDS011;20730;49.372;7.324;2024-01-27T01:51:02;11.68;;;3.90;;
34489;SDS011;20730;49.372;7.324;2024-01-27T01:53:29;15.02;;;4.30;;
34489;SDS011;20730;49.372;7.324;2024-01-27T01:55:56;8.02;;;3.63;;
34489;SDS011;20730;49.372;7.324;2024-01-27T01:58:22;14.00;;;3.45;;
34489;SDS011;20730;49.372;7.324;2024-01-27T02:00:49;14.00;;;4.13;;
34489;SDS011;20730;49.372;7.324;2024-01-27T02:03:16;11.32;;;3.58;;
34489;SDS011;20730;49.372;7.324;2024-01-27T02:05:44;12.13;;;4.20;;
34489;SDS011;20730;49.372;7.324;2024-01-27T02:08:10;17.10;;;4.55;;
34489;SDS011;20730;49.372;7.324;2024-01-27T02:10:37;17.00;;;5.05;;
34489;SDS011;20730;49.372;7.324;2024-01-27T02:13:04;16.60;;;5.13;;
34489;SDS011;20730;49.372;7.324;2024-01-27T02:15:32;15.23;;;5.38;;
34489;SDS011;20730;49.372;7.324;2024-01-27T02:17:58;12.40;;;4.15;;
34489;SDS011;20730;49.372;7.324;2024-01-27T02:20:25;14.85;;;4.10;;
34489;SDS011;20730;49.372;7.324;2024-01-27T02:22:52;16.88;;;4.05;;
34489;SDS011;20730;49.372;7.324;2024-01-27T02:25:18;13.18;;;3.80;;
34489;SDS011;20730;49.372;7.324;2024-01-27T02:27:45;12.82;;;4.18;;
34489;SDS011;20730;49.372;7.324;2024-01-27T02:30:11;20.58;;;4.80;;
34489;SDS011;20730;49.372;7.324;2024-01-27T02:32:39;10.10;;;4.20;;
34489;SDS011;20730;49.372;7.324;2024-01-27T02:35:05;15.73;;;5.00;;
34489;SDS011;20730;49.372;7.324;2024-01-27T02:37:32;12.57;;;4.75;;
34489;SDS011;20730;49.372;7.324;2024-01-27T02:39:58;11.98;;;4.93;;
34489;SDS011;20730;49.372;7.324;2024-01-27T02:42:25;15.52;;;4.35;;
34489;SDS011;20730;49.372;7.324;2024-01-27T02:44:52;14.23;;;4.50;;
34489;SDS011;20730;49.372;7.324;2024-01-27T02:47:18;14.90;;;4.72;;
34489;SDS011;20730;49.372;7.324;2024-01-27T02:49:45;11.52;;;4.88;;
34489;SDS011;20730;49.372;7.324;2024-01-27T02:52:11;13.13;;;4.38;;
34489;SDS011;20730;49.372;7.324;2024-01-27T02:54:40;10.63;;;4.07;;
34489;SDS011;20730;49.372;7.324;2024-01-27T02:57:06;14.27;;;3.60;;
34489;SDS011;20730;49.372;7.324;2024-01-27T02:59:33;10.93;;;3.20;;
34489;SDS011;20730;49.372;7.324;2024-01-27T03:02:00;22.13;;;4.25;;
34489;SDS011;20730;49.372;7.324;2024-01-27T03:04:27;12.20;;;4.20;;
34489;SDS011;20730;49.372;7.324;2024-01-27T03:06:53;12.65;;;4.30;;
34489;SDS011;20730;49.372;7.324;2024-01-27T03:09:20;16.30;;;4.38;;
34489;SDS011;20730;49.372;7.324;2024-01-27T03:11:46;16.90;;;4.57;;
34489;SDS011;20730;49.372;7.324;2024-01-27T03:14:13;16.30;;;4.57;;
34489;SDS011;20730;49.372;7.324;2024-01-27T03:16:40;9.57;;;4.30;;
34489;SDS011;20730;49.372;7.324;2024-01-27T03:19:06;15.52;;;4.10;;
34489;SDS011;20730;49.372;7.324;2024-01-27T03:21:33;13.63;;;5.18;;
34489;SDS011;20730;49.372;7.324;2024-01-27T03:24:00;11.30;;;4.85;;
34489;SDS011;20730;49.372;7.324;2024-01-27T03:26:26;13.18;;;5.35;;
34489;SDS011;20730;49.372;7.324;2024-01-27T03:28:53;17.63;;;5.78;;
34489;SDS011;20730;49.372;7.324;2024-01-27T03:31:19;16.38;;;5.38;;
34489;SDS011;20730;49.372;7.324;2024-01-27T03:33:46;22.67;;;8.02;;
34489;SDS011;20730;49.372;7.324;2024-01-27T03:36:13;17.30;;;6.13;;
34489;SDS011;20730;49.372;7.324;2024-01-27T03:38:40;11.38;;;3.90;;
34489;SDS011;20730;49.372;7.324;2024-01-27T03:41:07;10.02;;;3.58;;
34489;SDS011;20730;49.372;7.324;2024-01-27T03:43:34;16.75;;;3.90;;
34489;SDS011;20730;49.372;7.324;2024-01-27T03:46:00;18.15;;;4.18;;
34489;SDS011;20730;49.372;7.324;2024-01-27T03:48:27;18.20;;;6.53;;
34489;SDS011;20730;49.372;7.324;2024-01-27T03:50:54;15.18;;;4.90;;
34489;SDS011;20730;49.372;7.324;2024-01-27T03:53:20;15.68;;;4.90;;
34489;SDS011;20730;49.372;7.324;2024-01-27T03:55:48;17.23;;;5.38;;
34489;SDS011;20730;49.372;7.324;2024-01-27T03:58:14;16.25;;;5.32;;
34489;SDS011;20730;49.372;7.324;2024-01-27T04:00:40;11.77;;;4.45;;
34489;SDS011;20730;49.372;7.324;2024-01-27T04:03:10;19.65;;;5.22;;
34489;SDS011;20730;49.372;7.324;2024-01-27T04:05:37;16.85;;;5.38;;
34489;SDS011;20730;49.372;7.324;2024-01-27T04:08:06;13.55;;;5.05;;
34489;SDS011;20730;49.372;7.324;2024-01-27T04:10:33;20.30;;;4.80;;
34489;SDS011;20730;49.372;7.324;2024-01-27T04:13:00;14.88;;;4.38;;
34489;SDS011;20730;49.372;7.324;2024-01-27T04:15:27;9.30;;;3.22;;
34489;SDS011;20730;49.372;7.324;2024-01-27T04:17:54;11.45;;;3.70;;
34489;SDS011;20730;49.372;7.324;2024-01-27T04:20:21;16.92;;;3.75;;
34489;SDS011;20730;49.372;7.324;2024-01-27T04:22:47;11.50;;;3.50;;
34489;SDS011;20730;49.372;7.324;2024-01-27T04:25:14;15.15;;;3.67;;
34489;SDS011;20730;49.372;7.324;2024-01-27T04:27:41;15.18;;;3.40;;
34489;SDS011;20730;49.372;7.324;2024-01-27T04:30:08;12.15;;;3.90;;
34489;SDS011;20730;49.372;7.324;2024-01-27T04:32:36;8.95;;;3.67;;
34489;SDS011;20730;49.372;7.324;2024-01-27T04:35:03;13.80;;;3.78;;
34489;SDS011;20730;49.372;7.324;2024-01-27T04:37:30;13.63;;;3.83;;
34489;SDS011;20730;49.372;7.324;2024-01-27T04:39:57;9.95;;;3.97;;
34489;SDS011;20730;49.372;7.324;2024-01-27T04:42:24;14.18;;;3.38;;
34489;SDS011;20730;49.372;7.324;2024-01-27T04:44:50;14.35;;;3.95;;
34489;SDS011;20730;49.372;7.324;2024-01-27T04:47:17;12.23;;;3.65;;
34489;SDS011;20730;49.372;7.324;2024-01-27T04:49:44;10.20;;;4.13;;
34489;SDS011;20730;49.372;7.324;2024-01-27T04:52:10;8.73;;;3.72;;
34489;SDS011;20730;49.372;7.324;2024-01-27T04:54:37;10.38;;;3.75;;
34489;SDS011;20730;49.372;7.324;2024-01-27T04:57:03;16.63;;;4.78;;
34489;SDS011;20730;49.372;7.324;2024-01-27T04:59:30;13.88;;;5.00;;
34489;SDS011;20730;49.372;7.324;2024-01-27T05:01:56;11.30;;;5.20;;
34489;SDS011;20730;49.372;7.324;2024-01-27T05:04:23;18.42;;;5.10;;
34489;SDS011;20730;49.372;7.324;2024-01-27T05:06:53;15.55;;;6.13;;
34489;SDS011;20730;49.372;7.324;2024-01-27T05:09:20;16.00;;;5.93;;
34489;SDS011;20730;49.372;7.324;2024-01-27T05:11:46;11.18;;;5.63;;
34489;SDS011;20730;49.372;7.324;2024-01-27T05:14:14;13.05;;;5.00;;
34489;SDS011;20730;49.372;7.324;2024-01-27T05:16:41;16.23;;;4.80;;
34489;SDS011;20730;49.372;7.324;2024-01-27T05:19:07;14.98;;;5.35;;
34489;SDS011;20730;49.372;7.324;2024-01-27T05:21:34;17.75;;;5.25;;
34489;SDS011;20730;49.372;7.324;2024-01-27T05:24:00;14.68;;;4.15;;
34489;SDS011;20730;49.372;7.324;2024-01-27T05:26:28;19.38;;;3.80;;
34489;SDS011;20730;49.372;7.324;2024-01-27T05:28:54;14.32;;;4.28;;
34489;SDS011;20730;49.372;7.324;2024-01-27T05:31:21;15.63;;;4.38;;
34489;SDS011;20730;49.372;7.324;2024-01-27T05:33:47;20.83;;;4.28;;
34489;SDS011;20730;49.372;7.324;2024-01-27T05:36:14;25.35;;;4.22;;
34489;SDS011;20730;49.372;7.324;2024-01-27T05:38:41;18.98;;;4.25;;
34489;SDS011;20730;49.372;7.324;2024-01-27T05:41:07;14.50;;;4.22;;
34489;SDS011;20730;49.372;7.324;2024-01-27T05:43:34;17.67;;;4.10;;
34489;SDS011;20730;49.372;7.324;2024-01-27T05:46:00;36.70;;;12.88;;
34489;SDS011;20730;49.372;7.324;2024-01-27T05:48:27;59.33;;;19.95;;
34489;SDS011;20730;49.372;7.324;2024-01-27T05:50:57;34.25;;;11.60;;
34489;SDS011;20730;49.372;7.324;2024-01-27T05:55:50;20.92;;;7.00;;
34489;SDS011;20730;49.372;7.324;2024-01-27T05:58:17;19.77;;;5.00;;
34489;SDS011;20730;49.372;7.324;2024-01-27T06:00:44;15.43;;;4.55;;
34489;SDS011;20730;49.372;7.324;2024-01-27T06:03:10;14.35;;;4.25;;
34489;SDS011;20730;49.372;7.324;2024-01-27T06:05:37;19.85;;;4.43;;
34489;SDS011;20730;49.372;7.324;2024-01-27T06:08:04;10.23;;;4.35;;
34489;SDS011;20730;49.372;7.324;2024-01-27T06:10:31;18.80;;;4.60;;
34489;SDS011;20730;49.372;7.324;2024-01-27T06:12:57;13.55;;;3.80;;
34489;SDS011;20730;49.372;7.324;2024-01-27T06:15:24;16.52;;;3.95;;
34489;SDS011;20730;49.372;7.324;2024-01-27T06:17:50;15.40;;;4.22;;
34489;SDS011;20730;49.372;7.324;2024-01-27T06:20:19;13.55;;;3.78;;
34489;SDS011;20730;49.372;7.324;2024-01-27T06:22:45;13.00;;;3.83;;
34489;SDS011;20730;49.372;7.324;2024-01-27T06:25:12;11.95;;;4.03;;
34489;SDS011;20730;49.372;7.324;2024-01-27T06:27:38;16.27;;;4.47;;
34489;SDS011;20730;49.372;7.324;2024-01-27T06:30:07;22.20;;;4.20;;
34489;SDS011;20730;49.372;7.324;2024-01-27T06:32:34;24.08;;;4.78;;
34489;SDS011;20730;49.372;7.324;2024-01-27T06:35:01;15.90;;;3.92;;
34489;SDS011;20730;49.372;7.324;2024-01-27T06:37:27;23.17;;;4.70;;
34489;SDS011;20730;49.372;7.324;2024-01-27T06:39:54;19.00;;;5.00;;
34489;SDS011;20730;49.372;7.324;2024-01-27T06:42:20;19.85;;;4.63;;
34489;SDS011;20730;49.372;7.324;2024-01-27T06:44:47;15.10;;;4.57;;
34489;SDS011;20730;49.372;7.324;2024-01-27T06:47:14;17.35;;;5.00;;
34489;SDS011;20730;49.372;7.324;2024-01-27T06:49:40;16.55;;;4.78;;
34489;SDS011;20730;49.372;7.324;2024-01-27T06:52:07;16.25;;;5.00;;
34489;SDS011;20730;49.372;7.324;2024-01-27T06:54:33;26.67;;;5.70;;
34489;SDS011;20730;49.372;7.324;2024-01-27T06:57:00;15.65;;;4.97;;
34489;SDS011;20730;49.372;7.324;2024-01-27T06:59:27;20.25;;;5.15;;
34489;SDS011;20730;49.372;7.324;2024-01-27T07:01:53;20.80;;;5.25;;
34489;SDS011;20730;49.372;7.324;2024-01-27T07:04:20;19.27;;;4.88;;
34489;SDS011;20730;49.372;7.324;2024-01-27T07:06:47;20.02;;;4.95;;
34489;SDS011;20730;49.372;7.324;2024-01-27T07:09:13;16.80;;;4.63;;
34489;SDS011;20730;49.372;7.324;2024-01-27T07:11:40;22.17;;;5.38;;
34489;SDS011;20730;49.372;7.324;2024-01-27T07:14:07;18.08;;;6.00;;
34489;SDS011;20730;49.372;7.324;2024-01-27T07:16:34;17.70;;;4.85;;
34489;SDS011;20730;49.372;7.324;2024-01-27T07:19:01;17.35;;;5.97;;
34489;SDS011;20730;49.372;7.324;2024-01-27T07:21:27;24.33;;;5.40;;
34489;SDS011;20730;49.372;7.324;2024-01-27T07:23:55;20.23;;;5.40;;
34489;SDS011;20730;49.372;7.324;2024-01-27T07:26:22;15.05;;;5.15;;
34489;SDS011;20730;49.372;7.324;2024-01-27T07:28:48;11.82;;;5.20;;
34489;SDS011;20730;49.372;7.324;2024-01-27T07:31:15;20.77;;;5.60;;
34489;SDS011;20730;49.372;7.324;2024-01-27T07:33:41;16.80;;;5.10;;
34489;SDS011;20730;49.372;7.324;2024-01-27T07:36:08;15.48;;;6.25;;
34489;SDS011;20730;49.372;7.324;2024-01-27T07:38:35;18.25;;;6.07;;
34489;SDS011;20730;49.372;7.324;2024-01-27T07:41:01;21.13;;;7.03;;
34489;SDS011;20730;49.372;7.324;2024-01-27T07:43:28;22.98;;;7.45;;
34489;SDS011;20730;49.372;7.324;2024-01-27T07:45:55;20.92;;;6.68;;
34489;SDS011;20730;49.372;7.324;2024-01-27T07:48:21;19.42;;;6.93;;
34489;SDS011;20730;49.372;7.324;2024-01-27T07:50:49;20.27;;;7.38;;
34489;SDS011;20730;49.372;7.324;2024-01-27T07:53:16;22.25;;;9.02;;
34489;SDS011;20730;49.372;7.324;2024-01-27T07:55:43;25.95;;;11.00;;
34489;SDS011;20730;49.372;7.324;2024-01-27T07:58:09;22.73;;;8.93;;
34489;SDS011;20730;49.372;7.324;2024-01-27T08:00:36;21.42;;;10.15;;
34489;SDS011;20730;49.372;7.324;2024-01-27T08:03:03;22.17;;;10.02;;
34489;SDS011;20730;49.372;7.324;2024-01-27T08:05:29;22.30;;;9.48;;
34489;SDS011;20730;49.372;7.324;2024-01-27T08:07:56;24.02;;;9.18;;
34489;SDS011;20730;49.372;7.324;2024-01-27T08:10:22;18.15;;;8.60;;
34489;SDS011;20730;49.372;7.324;2024-01-27T08:12:49;20.15;;;7.38;;
34489;SDS011;20730;49.372;7.324;2024-01-27T08:15:15;20.60;;;8.20;;
34489;SDS011;20730;49.372;7.324;2024-01-27T08:17:42;23.23;;;10.30;;
34489;SDS011;20730;49.372;7.324;2024-01-27T08:20:09;26.40;;;10.77;;
34489;SDS011;20730;49.372;7.324;2024-01-27T08:22:36;23.80;;;9.65;;
34489;SDS011;20730;49.372;7.324;2024-01-27T08:25:02;25.80;;;9.90;;
34489;SDS011;20730;49.372;7.324;2024-01-27T08:27:29;22.65;;;9.82;;
34489;SDS011;20730;49.372;7.324;2024-01-27T08:29:56;22.00;;;8.48;;
34489;SDS011;20730;49.372;7.324;2024-01-27T08:32:24;23.42;;;9.07;;
34489;SDS011;20730;49.372;7.324;2024-01-27T08:34:51;23.35;;;9.05;;
34489;SDS011;20730;49.372;7.324;2024-01-27T08:37:18;21.88;;;9.20;;
34489;SDS011;20730;49.372;7.324;2024-01-27T08:39:45;24.92;;;10.10;;
34489;SDS011;20730;49.372;7.324;2024-01-27T08:42:11;21.75;;;9.98;;
34489;SDS011;20730;49.372;7.324;2024-01-27T08:44:38;26.17;;;9.00;;
34489;SDS011;20730;49.372;7.324;2024-01-27T08:47:05;18.77;;;7.13;;
34489;SDS011;20730;49.372;7.324;2024-01-27T08:49:34;15.20;;;6.20;;
34489;SDS011;20730;49.372;7.324;2024-01-27T08:52:01;23.58;;;10.55;;
34489;SDS011;20730;49.372;7.324;2024-01-27T08:54:27;23.30;;;9.73;;
34489;SDS011;20730;49.372;7.324;2024-01-27T08:56:54;20.60;;;8.43;;
34489;SDS011;20730;49.372;7.324;2024-01-27T08:59:21;23.38;;;9.95;;
34489;SDS011;20730;49.372;7.324;2024-01-27T09:01:47;25.27;;;10.13;;
34489;SDS011;20730;49.372;7.324;2024-01-27T09:04:14;27.42;;;10.55;;
34489;SDS011;20730;49.372;7.324;2024-01-27T09:06:41;21.52;;;9.70;;
34489;SDS011;20730;49.372;7.324;2024-01-27T09:09:07;22.63;;;9.43;;
34489;SDS011;20730;49.372;7.324;2024-01-27T09:11:34;18.75;;;8.63;;
34489;SDS011;20730;49.372;7.324;2024-01-27T09:14:01;19.75;;;8.07;;
34489;SDS011;20730;49.372;7.324;2024-01-27T09:16:27;19.42;;;9.30;;
34489;SDS011;20730;49.372;7.324;2024-01-27T09:18:54;20.70;;;9.93;;
34489;SDS011;20730;49.372;7.324;2024-01-27T09:21:21;18.02;;;8.55;;
34489;SDS011;20730;49.372;7.324;2024-01-27T09:23:54;13.80;;;6.28;;
34489;SDS011;20730;49.372;7.324;2024-01-27T09:26:21;14.00;;;6.65;;
34489;SDS011;20730;49.372;7.324;2024-01-27T09:28:49;14.60;;;6.93;;
34489;SDS011;20730;49.372;7.324;2024-01-27T09:31:21;16.00;;;5.65;;
34489;SDS011;20730;49.372;7.324;2024-01-27T09:33:52;15.27;;;5.72;;
34489;SDS011;20730;49.372;7.324;2024-01-27T09:36:19;15.98;;;5.57;;
34489;SDS011;20730;49.372;7.324;2024-01-27T09:38:46;14.73;;;5.38;;
34489;SDS011;20730;49.372;7.324;2024-01-27T09:41:14;14.70;;;5.68;;
34489;SDS011;20730;49.372;7.324;2024-01-27T09:43:44;15.90;;;5.10;;
34489;SDS011;20730;49.372;7.324;2024-01-27T09:48:37;11.27;;;5.13;;
34489;SDS011;20730;49.372;7.324;2024-01-27T09:51:04;14.07;;;5.28;;
34489;SDS011;20730;49.372;7.324;2024-01-27T09:53:31;17.40;;;5.35;;
34489;SDS011;20730;49.372;7.324;2024-01-27T09:55:58;12.82;;;4.75;;
34489;SDS011;20730;49.372;7.324;2024-01-27T09:58:25;22.98;;;7.95;;
34489;SDS011;20730;49.372;7.324;2024-01-27T10:00:53;14.68;;;5.28;;
34489;SDS011;20730;49.372;7.324;2024-01-27T10:03:25;14.68;;;5.50;;
34489;SDS011;20730;49.372;7.324;2024-01-27T10:05:53;19.98;;;5.90;;
34489;SDS011;20730;49.372;7.324;2024-01-27T10:08:23;20.90;;;6.03;;
34489;SDS011;20730;49.372;7.324;2024-01-27T10:10:58;19.17;;;7.13;;
34489;SDS011;20730;49.372;7.324;2024-01-27T10:13:25;14.88;;;5.82;;
34489;SDS011;20730;49.372;7.324;2024-01-27T10:16:05;13.05;;;5.72;;
34489;SDS011;20730;49.372;7.324;2024-01-27T10:18:32;16.08;;;5.22;;
34489;SDS011;20730;49.372;7.324;2024-01-27T10:20:59;17.77;;;5.95;;
34489;SDS011;20730;49.372;7.324;2024-01-27T10:23:26;14.68;;;4.85;;
34489;SDS011;20730;49.372;7.324;2024-01-27T10:25:52;17.42;;;5.72;;
34489;SDS011;20730;49.372;7.324;2024-01-27T10:28:23;17.50;;;3.88;;
34489;SDS011;20730;49.372;7.324;2024-01-27T10:30:50;15.63;;;4.40;;
34489;SDS011;20730;49.372;7.324;2024-01-27T10:33:16;14.93;;;3.58;;
34489;SDS011;20730;49.372;7.324;2024-01-27T10:35:43;14.85;;;4.20;;
34489;SDS011;20730;49.372;7.324;2024-01-27T10:38:10;11.30;;;3.95;;
34489;SDS011;20730;49.372;7.324;2024-01-27T10:40:36;18.10;;;4.68;;
34489;SDS011;20730;49.372;7.324;2024-01-27T10:43:07;17.73;;;5.47;;
34489;SDS011;20730;49.372;7.324;2024-01-27T10:48:04;11.88;;;3.92;;
34489;SDS011;20730;49.372;7.324;2024-01-27T10:50:33;12.45;;;3.80;;
34489;SDS011;20730;49.372;7.324;2024-01-27T10:53:00;14.55;;;4.50;;
34489;SDS011;20730;49.372;7.324;2024-01-27T10:55:27;12.38;;;4.13;;
34489;SDS011;20730;49.372;7.324;2024-01-27T10:57:54;14.88;;;3.85;;
34489;SDS011;20730;49.372;7.324;2024-01-27T11:00:22;11.90;;;3.00;;
34489;SDS011;20730;49.372;7.324;2024-01-27T11:02:50;12.85;;;3.00;;
34489;SDS011;20730;49.372;7.324;2024-01-27T11:05:20;9.90;;;3.00;;
34489;SDS011;20730;49.372;7.324;2024-01-27T11:07:46;8.18;;;3.03;;
34489;SDS011;20730;49.372;7.324;2024-01-27T11:10:13;8.57;;;3.13;;
34489;SDS011;20730;49.372;7.324;2024-01-27T11:12:39;12.27;;;3.97;;
34489;SDS011;20730;49.372;7.324;2024-01-27T11:15:06;13.65;;;3.95;;
34489;SDS011;20730;49.372;7.324;2024-01-27T11:17:39;12.18;;;4.00;;
34489;SDS011;20730;49.372;7.324;2024-01-27T11:20:08;12.95;;;3.25;;
34489;SDS011;20730;49.372;7.324;2024-01-27T11:22:35;12.32;;;3.25;;
34489;SDS011;20730;49.372;7.324;2024-01-27T11:25:08;7.55;;;2.80;;
34489;SDS011;20730;49.372;7.324;2024-01-27T11:27:35;7.45;;;2.20;;
34489;SDS011;20730;49.372;7.324;2024-01-27T11:30:03;8.80;;;2.28;;
34489;SDS011;20730;49.372;7.324;2024-01-27T11:32:30;7.80;;;2.80;;
34489;SDS011;20730;49.372;7.324;2024-01-27T11:34:57;8.68;;;2.55;;
34489;SDS011;20730;49.372;7.324;2024-01-27T11:37:29;11.00;;;3.50;;
34489;SDS011;20730;49.372;7.324;2024-01-27T11:40:05;11.70;;;3.95;;
34489;SDS011;20730;49.372;7.324;2024-01-27T11:42:32;11.82;;;3.95;;
34489;SDS011;20730;49.372;7.324;2024-01-27T11:44:59;12.80;;;3.90;;
34489;SDS011;20730;49.372;7.324;2024-01-27T11:47:26;13.15;;;4.25;;
34489;SDS011;20730;49.372;7.324;2024-01-27T11:49:53;10.05;;;3.40;;
34489;SDS011;20730;49.372;7.324;2024-01-27T11:52:21;16.98;;;4.38;;
34489;SDS011;20730;49.372;7.324;2024-01-27T11:54:54;10.85;;;4.10;;
34489;SDS011;20730;49.372;7.324;2024-01-27T11:57:21;8.10;;;2.95;;
34489;SDS011;20730;49.372;7.324;2024-01-27T11:59:48;8.80;;;2.63;;
34489;SDS011;20730;49.372;7.324;2024-01-27T12:02:14;6.30;;;2.40;;
34489;SDS011;20730;49.372;7.324;2024-01-27T12:04:41;8.20;;;3.45;;
34489;SDS011;20730;49.372;7.324;2024-01-27T12:07:08;12.55;;;3.47;;
34489;SDS011;20730;49.372;7.324;2024-01-27T12:09:36;14.82;;;2.83;;
34489;SDS011;20730;49.372;7.324;2024-01-27T12:12:03;5.72;;;1.65;;
34489;SDS011;20730;49.372;7.324;2024-01-27T12:17:09;8.02;;;1.90;;
34489;SDS011;20730;49.372;7.324;2024-01-27T12:22:03;3.72;;;0.75;;
34489;SDS011;20730;49.372;7.324;2024-01-27T12:24:29;5.78;;;1.40;;
34489;SDS011;20730;49.372;7.324;2024-01-27T12:26:59;8.52;;;1.52;;
34489;SDS011;20730;49.372;7.324;2024-01-27T12:29:25;5.72;;;1.60;;
34489;SDS011;20730;49.372;7.324;2024-01-27T12:31:52;5.93;;;1.40;;
34489;SDS011;20730;49.372;7.324;2024-01-27T12:34:20;5.40;;;1.20;;
34489;SDS011;20730;49.372;7.324;2024-01-27T12:36:47;7.03;;;1.42;;
34489;SDS011;20730;49.372;7.324;2024-01-27T12:39:14;8.25;;;1.42;;
34489;SDS011;20730;49.372;7.324;2024-01-27T12:41:40;4.93;;;1.50;;
34489;SDS011;20730;49.372;7.324;2024-01-27T12:44:07;8.35;;;1.60;;
34489;SDS011;20730;49.372;7.324;2024-01-27T12:46:34;8.80;;;1.23;;
34489;SDS011;20730;49.372;7.324;2024-01-27T12:49:00;6.80;;;1.20;;
34489;SDS011;20730;49.372;7.324;2024-01-27T12:51:27;6.40;;;1.20;;
34489;SDS011;20730;49.372;7.324;2024-01-27T12:53:54;5.93;;;1.23;;
34489;SDS011;20730;49.372;7.324;2024-01-27T12:56:20;3.17;;;0.88;;
34489;SDS011;20730;49.372;7.324;2024-01-27T12:58:47;4.50;;;1.15;;
34489;SDS011;20730;49.372;7.324;2024-01-27T13:01:14;5.63;;;1.10;;
34489;SDS011;20730;49.372;7.324;2024-01-27T13:03:40;3.00;;;0.90;;
34489;SDS011;20730;49.372;7.324;2024-01-27T13:06:11;3.75;;;0.70;;
34489;SDS011;20730;49.372;7.324;2024-01-27T13:08:39;3.00;;;0.60;;
34489;SDS011;20730;49.372;7.324;2024-01-27T13:11:05;4.88;;;0.82;;
34489;SDS011;20730;49.372;7.324;2024-01-27T13:13:32;1.25;;;0.60;;
34489;SDS011;20730;49.372;7.324;2024-01-27T13:15:59;2.10;;;0.65;;
34489;SDS011;20730;49.372;7.324;2024-01-27T13:18:25;6.00;;;0.88;;
34489;SDS011;20730;49.372;7.324;2024-01-27T13:20:52;2.95;;;0.90;;
34489;SDS011;20730;49.372;7.324;2024-01-27T13:23:19;1.98;;;0.75;;
34489;SDS011;20730;49.372;7.324;2024-01-27T13:25:45;3.38;;;0.68;;
34489;SDS011;20730;49.372;7.324;2024-01-27T13:28:32;5.05;;;0.90;;
34489;SDS011;20730;49.372;7.324;2024-01-27T13:30:59;4.70;;;1.00;;
34489;SDS011;20730;49.372;7.324;2024-01-27T13:33:26;7.72;;;1.10;;
34489;SDS011;20730;49.372;7.324;2024-01-27T13:35:55;3.17;;;1.10;;
34489;SDS011;20730;49.372;7.324;2024-01-27T13:38:22;5.78;;;1.10;;
34489;SDS011;20730;49.372;7.324;2024-01-27T13:40:50;7.30;;;1.95;;
34489;SDS011;20730;49.372;7.324;2024-01-27T13:43:16;6.45;;;1.35;;
34489;SDS011;20730;49.372;7.324;2024-01-27T13:45:43;6.00;;;1.60;;
34489;SDS011;20730;49.372;7.324;2024-01-27T13:48:10;8.95;;;1.75;;
34489;SDS011;20730;49.372;7.324;2024-01-27T13:50:37;8.02;;;1.30;;
34489;SDS011;20730;49.372;7.324;2024-01-27T13:53:04;4.43;;;1.42;;
34489;SDS011;20730;49.372;7.324;2024-01-27T13:55:32;5.63;;;1.38;;
34489;SDS011;20730;49.372;7.324;2024-01-27T13:57:59;7.97;;;1.60;;
34489;SDS011;20730;49.372;7.324;2024-01-27T14:00:26;7.53;;;2.30;;
34489;SDS011;20730;49.372;7.324;2024-01-27T14:02:52;4.95;;;1.30;;
34489;SDS011;20730;49.372;7.324;2024-01-27T14:05:19;5.57;;;1.50;;
34489;SDS011;20730;49.372;7.324;2024-01-27T14:07:46;4.38;;;1.38;;
34489;SDS011;20730;49.372;7.324;2024-01-27T14:10:12;8.80;;;1.85;;
34489;SDS011;20730;49.372;7.324;2024-01-27T14:12:39;5.90;;;1.35;;
34489;SDS011;20730;49.372;7.324;2024-01-27T14:15:06;8.75;;;1.42;;
34489;SDS011;20730;49.372;7.324;2024-01-27T14:17:34;5.95;;;1.40;;
34489;SDS011;20730;49.372;7.324;2024-01-27T14:20:04;7.57;;;1.35;;
34489;SDS011;20730;49.372;7.324;2024-01-27T14:22:31;6.90;;;1.42;;
34489;SDS011;20730;49.372;7.324;2024-01-27T14:24:58;5.15;;;1.60;;
34489;SDS011;20730;49.372;7.324;2024-01-27T14:27:24;2.83;;;1.10;;
34489;SDS011;20730;49.372;7.324;2024-01-27T14:29:53;9.48;;;1.55;;
34489;SDS011;20730;49.372;7.324;2024-01-27T14:32:20;4.10;;;1.48;;
34489;SDS011;20730;49.372;7.324;2024-01-27T14:34:47;3.78;;;1.30;;
34489;SDS011;20730;49.372;7.324;2024-01-27T14:37:15;5.03;;;1.33;;
34489;SDS011;20730;49.372;7.324;2024-01-27T14:39:45;4.60;;;1.30;;
34489;SDS011;20730;49.372;7.324;2024-01-27T14:44:39;5.32;;;1.45;;
34489;SDS011;20730;49.372;7.324;2024-01-27T14:47:07;10.13;;;1.73;;
34489;SDS011;20730;49.372;7.324;2024-01-27T14:49:34;6.20;;;1.30;;
34489;SDS011;20730;49.372;7.324;2024-01-27T14:52:04;4.93;;;1.30;;